Litchfield, California
Current Conditions -  °F | °C
As of 12:15 PM on Saturday 25 Oct 2014 (Local Time) from KRTS Reporting Station
Broken Clouds Broken Clouds  
Wind Chill: 55°   Ceiling: 5000
Heat Index: 55°   Visibility: 10mi
Dew Point: 36°   Wind: 31mph
Humidity: 47%   Direction: 260°W
Pressure: 30.01"   Gusts: 40mph
Location:  40.38°N, 120.39°W
Report Text: KRTS 251915Z AUTO 26027G35KT 10SM BKN050 BKN060 13/02 A3001 RMK AO2
Loading
Personal Weather Stations






























Interactive Weather Map
Tropical Storm Tracking
New forecast layout! Learn more

10-Day Weather Forecast

Advertisements
Track Severe Weather on mobile